createdAt,value
2023-04-18T00:00:24.627Z,11.43
2023-04-18T00:01:27.003Z,11.35
2023-04-18T00:02:30.083Z,12.15
2023-04-18T00:03:32.223Z,10.50
2023-04-18T00:04:35.409Z,13.70
2023-04-18T00:05:37.889Z,13.45
2023-04-18T00:06:41.035Z,11.05
2023-04-18T00:07:44.725Z,10.80
2023-04-18T00:08:47.635Z,9.32
2023-04-18T00:09:49.570Z,10.57
2023-04-18T00:10:52.477Z,11.60
2023-04-18T00:11:54.650Z,10.45
2023-04-18T00:12:58.222Z,15.82
2023-04-18T00:14:00.405Z,10.43
2023-04-18T00:15:04.401Z,13.75
2023-04-18T00:16:08.541Z,11.52
2023-04-18T00:17:13.498Z,11.35
2023-04-18T00:18:17.134Z,12.10
2023-04-18T00:19:20.104Z,11.25
2023-04-18T00:20:22.548Z,12.00
2023-04-18T00:21:26.112Z,10.00
2023-04-18T00:22:28.301Z,11.60
2023-04-18T00:23:34.384Z,10.57
2023-04-18T00:24:36.343Z,11.52
2023-04-18T00:25:39.239Z,12.85
2023-04-18T00:26:41.203Z,11.52
2023-04-18T00:27:44.132Z,10.75
2023-04-18T00:28:46.044Z,12.55
2023-04-18T00:29:49.757Z,12.43
2023-04-18T00:30:51.917Z,14.27
2023-04-18T00:31:55.246Z,12.30
2023-04-18T00:32:57.276Z,11.00
2023-04-18T00:34:00.210Z,14.32
2023-04-18T00:35:02.214Z,11.60
2023-04-18T00:36:06.009Z,12.25
2023-04-18T00:37:08.477Z,11.48
2023-04-18T00:38:11.513Z,11.20
2023-04-18T00:39:14.810Z,11.38
2023-04-18T00:40:17.822Z,9.85
2023-04-18T00:41:20.335Z,10.43
2023-04-18T00:42:25.515Z,11.05
2023-04-18T00:43:28.089Z,11.40
2023-04-18T00:44:31.364Z,9.77
2023-04-18T00:45:33.308Z,13.95
2023-04-18T00:46:36.272Z,13.05
2023-04-18T00:47:38.297Z,14.80
2023-04-18T00:48:41.649Z,12.93
2023-04-18T00:49:43.952Z,13.18
2023-04-18T00:50:47.130Z,12.18
2023-04-18T00:51:49.588Z,11.60
2023-04-18T00:52:53.117Z,15.60
2023-04-18T00:53:55.200Z,12.23
2023-04-18T00:54:59.819Z,13.15
2023-04-18T00:56:02.202Z,13.15
2023-04-18T00:57:05.157Z,17.08
2023-04-18T00:58:07.355Z,13.90
2023-04-18T00:59:11.018Z,12.13
2023-04-18T01:00:15.110Z,12.95
2023-04-18T01:01:18.164Z,12.70
2023-04-18T01:02:20.275Z,12.73
2023-04-18T01:03:25.170Z,10.30
2023-04-18T01:04:27.354Z,12.57
2023-04-18T01:05:30.784Z,13.10
2023-04-18T01:06:33.036Z,14.50
2023-04-18T01:07:40.650Z,14.23
2023-04-18T01:08:43.571Z,11.65
2023-04-18T01:09:46.705Z,12.10
2023-04-18T01:10:50.357Z,14.68
2023-04-18T01:11:53.417Z,11.15
2023-04-18T01:13:11.141Z,14.07
2023-04-18T01:14:14.340Z,12.75
2023-04-18T01:15:16.425Z,10.85
2023-04-18T01:16:19.383Z,13.00
2023-04-18T01:17:23.268Z,10.05
2023-04-18T01:18:26.808Z,13.57
2023-04-18T01:19:28.812Z,11.27
2023-04-18T01:20:32.218Z,12.90
2023-04-18T01:21:36.136Z,13.02
2023-04-18T01:22:39.020Z,13.85
2023-04-18T01:23:41.471Z,12.15
2023-04-18T01:24:45.782Z,11.98
2023-04-18T01:25:49.260Z,14.50
2023-04-18T01:26:52.209Z,13.73
2023-04-18T01:27:54.277Z,15.20
2023-04-18T01:28:57.249Z,15.00
2023-04-18T01:29:59.154Z,12.55
2023-04-18T01:31:02.115Z,14.77
2023-04-18T01:32:04.274Z,16.75
2023-04-18T01:33:07.437Z,14.75
2023-04-18T01:34:09.667Z,13.05
2023-04-18T01:35:12.730Z,14.40
2023-04-18T01:36:14.932Z,13.98
2023-04-18T01:37:17.883Z,15.02
2023-04-18T01:38:19.840Z,17.13
2023-04-18T01:39:22.774Z,11.50
2023-04-18T01:40:26.136Z,16.58
2023-04-18T01:41:32.326Z,14.07
2023-04-18T01:42:34.359Z,13.07
2023-04-18T01:43:37.351Z,13.55
2023-04-18T01:44:39.333Z,13.35
2023-04-18T01:45:42.309Z,15.48
2023-04-18T01:46:44.348Z,13.20
2023-04-18T01:47:47.407Z,14.95
2023-04-18T01:48:49.408Z,17.13
2023-04-18T01:49:52.424Z,11.77
2023-04-18T01:50:54.446Z,14.77
2023-04-18T01:51:57.395Z,14.27
2023-04-18T01:52:59.341Z,16.85
2023-04-18T01:54:02.294Z,12.32
2023-04-18T01:55:06.195Z,16.05
2023-04-18T01:56:11.163Z,16.33
2023-04-18T01:57:13.116Z,15.70
2023-04-18T01:58:16.274Z,15.35
2023-04-18T01:59:18.255Z,15.38
2023-04-18T02:00:22.284Z,14.43
2023-04-18T02:01:24.366Z,13.25
2023-04-18T02:02:27.474Z,13.95
2023-04-18T02:03:29.615Z,12.82
2023-04-18T02:04:32.669Z,14.50
2023-04-18T02:05:36.267Z,13.90
2023-04-18T02:06:39.238Z,14.13
2023-04-18T02:07:42.696Z,18.27
2023-04-18T02:08:45.750Z,12.38
2023-04-18T02:09:47.761Z,18.02
2023-04-18T02:10:50.748Z,13.32
2023-04-18T02:11:55.376Z,19.63
2023-04-18T02:12:58.283Z,14.90
2023-04-18T02:14:00.281Z,14.38
2023-04-18T02:15:03.752Z,17.55
2023-04-18T02:16:06.568Z,15.00
2023-04-18T02:17:09.715Z,19.02
2023-04-18T02:18:12.207Z,16.25
2023-04-18T02:19:15.288Z,15.75
2023-04-18T02:20:17.407Z,14.50
2023-04-18T02:21:21.835Z,17.10
2023-04-18T02:22:24.091Z,16.17
2023-04-18T02:23:27.012Z,22.10
2023-04-18T02:24:28.949Z,15.93
2023-04-18T02:25:32.261Z,15.43
2023-04-18T02:26:34.216Z,18.38
2023-04-18T02:27:38.479Z,15.73
2023-04-18T02:28:40.390Z,16.10
2023-04-18T02:29:43.333Z,17.02
2023-04-18T02:30:45.269Z,18.30
2023-04-18T02:31:48.258Z,14.57
2023-04-18T02:32:52.141Z,19.55
2023-04-18T02:33:55.195Z,15.95
2023-04-18T02:34:58.119Z,13.60
2023-04-18T02:36:01.659Z,13.65
2023-04-18T02:37:04.711Z,15.85
2023-04-18T02:38:07.618Z,15.00
2023-04-18T02:39:09.553Z,14.70
2023-04-18T02:40:13.689Z,22.98
2023-04-18T02:41:19.320Z,13.82
2023-04-18T02:42:22.499Z,16.90
2023-04-18T02:43:25.794Z,17.17
2023-04-18T02:44:28.747Z,14.27
2023-04-18T02:45:30.704Z,15.23
2023-04-18T02:46:33.615Z,14.63
2023-04-18T02:47:47.047Z,14.65
2023-04-18T02:48:54.594Z,17.15
2023-04-18T02:49:56.599Z,14.05
2023-04-18T02:51:04.317Z,15.73
2023-04-18T02:52:06.667Z,18.63
2023-04-18T02:53:09.674Z,17.73
2023-04-18T02:54:11.789Z,19.58
2023-04-18T02:55:15.164Z,22.95
2023-04-18T02:56:17.206Z,15.07
2023-04-18T02:57:20.161Z,11.32
2023-04-18T02:58:22.769Z,14.30
2023-04-18T02:59:27.122Z,15.18
2023-04-18T03:00:29.313Z,14.15
2023-04-18T03:01:32.330Z,15.75
2023-04-18T03:02:34.454Z,14.27
2023-04-18T03:03:37.478Z,16.63
2023-04-18T03:04:39.534Z,17.15
2023-04-18T03:05:42.657Z,16.38
2023-04-18T03:06:44.583Z,17.58
2023-04-18T03:07:47.466Z,14.93
2023-04-18T03:08:49.488Z,13.73
2023-04-18T03:09:52.407Z,14.82
2023-04-18T03:10:56.315Z,15.48
2023-04-18T03:11:59.409Z,16.33
2023-04-18T03:13:02.115Z,18.75
2023-04-18T03:14:05.078Z,14.18
2023-04-18T03:15:09.551Z,18.60
2023-04-18T03:16:13.494Z,19.85
2023-04-18T03:17:15.796Z,16.80
2023-04-18T03:18:18.797Z,15.32
2023-04-18T03:19:21.589Z,17.33
2023-04-18T03:20:24.787Z,16.23
2023-04-18T03:21:26.686Z,19.27
2023-04-18T03:22:29.630Z,15.60
2023-04-18T03:23:31.558Z,14.57
2023-04-18T03:24:34.486Z,15.85
2023-04-18T03:25:36.453Z,15.23
2023-04-18T03:26:39.378Z,22.15
2023-04-18T03:27:42.831Z,14.40
2023-04-18T03:28:45.793Z,14.30
2023-04-18T03:29:47.862Z,16.00
2023-04-18T03:30:52.168Z,18.40
2023-04-18T03:31:54.156Z,14.80
2023-04-18T03:32:57.112Z,16.10
2023-04-18T03:33:59.082Z,16.52
2023-04-18T03:35:02.332Z,16.13
2023-04-18T03:36:06.472Z,17.65
2023-04-18T03:37:08.523Z,20.30
2023-04-18T03:38:11.430Z,17.13
2023-04-18T03:39:13.379Z,19.25
2023-04-18T03:40:16.340Z,16.88
2023-04-18T03:41:18.259Z,18.33
2023-04-18T03:42:21.207Z,16.65
2023-04-18T03:43:23.296Z,13.68
2023-04-18T03:44:26.228Z,15.20
2023-04-18T03:45:28.266Z,18.42
2023-04-18T03:46:32.617Z,16.98
2023-04-18T03:47:34.629Z,14.27
2023-04-18T03:48:37.644Z,14.27
2023-04-18T03:49:40.468Z,17.27
2023-04-18T03:50:43.455Z,15.85
2023-04-18T03:51:47.698Z,15.32
2023-04-18T03:52:50.734Z,17.45
2023-04-18T03:53:52.687Z,16.35
2023-04-18T03:54:55.694Z,17.90
2023-04-18T03:55:57.886Z,15.63
2023-04-18T03:57:00.880Z,14.70
2023-04-18T03:58:03.778Z,21.52
2023-04-18T03:59:05.781Z,14.98
2023-04-18T04:00:10.386Z,18.42
2023-04-18T04:01:12.859Z,16.70
2023-04-18T04:02:17.242Z,16.70
2023-04-18T04:03:19.970Z,16.55
2023-04-18T04:04:22.986Z,16.63
2023-04-18T04:05:25.059Z,14.15
2023-04-18T04:06:28.386Z,14.77
2023-04-18T04:07:30.412Z,16.85
2023-04-18T04:08:33.312Z,14.25
2023-04-18T04:09:35.291Z,18.92
2023-04-18T04:10:38.212Z,16.23
2023-04-18T04:11:40.629Z,16.95
2023-04-18T04:12:43.632Z,17.63
2023-04-18T04:13:45.698Z,14.50
2023-04-18T04:14:48.652Z,19.67
2023-04-18T04:15:51.865Z,18.38
2023-04-18T04:16:54.982Z,18.10
2023-04-18T04:17:58.326Z,16.42
2023-04-18T04:19:01.368Z,18.17
2023-04-18T04:20:03.926Z,17.50
2023-04-18T04:21:07.626Z,18.20
2023-04-18T04:22:09.907Z,16.15
2023-04-18T04:23:12.910Z,18.80
2023-04-18T04:24:15.207Z,20.05
2023-04-18T04:25:18.464Z,20.38
2023-04-18T04:26:23.091Z,16.17
2023-04-18T04:27:26.878Z,19.70
2023-04-18T04:28:28.923Z,18.10
2023-04-18T04:29:32.232Z,15.35
2023-04-18T04:30:34.228Z,16.83
2023-04-18T04:31:37.203Z,15.98
2023-04-18T04:32:39.199Z,18.40
2023-04-18T04:33:44.242Z,15.25
2023-04-18T04:34:46.459Z,20.20
2023-04-18T04:35:49.781Z,18.75
2023-04-18T04:36:51.752Z,19.48
2023-04-18T04:37:54.640Z,20.98
2023-04-18T04:38:56.911Z,19.27
2023-04-18T04:40:00.795Z,17.17
2023-04-18T04:41:02.935Z,17.45
2023-04-18T04:42:05.911Z,17.30
2023-04-18T04:43:12.933Z,19.83
2023-04-18T04:44:17.886Z,20.75
2023-04-18T04:45:21.062Z,18.30
2023-04-18T04:46:23.366Z,16.38
2023-04-18T04:47:26.539Z,16.90
2023-04-18T04:48:29.614Z,18.63
2023-04-18T04:49:33.887Z,17.73
2023-04-18T04:50:37.354Z,19.00
2023-04-18T04:51:40.396Z,16.75
2023-04-18T04:52:42.598Z,17.67
2023-04-18T04:53:45.634Z,16.17
2023-04-18T04:54:48.096Z,17.38
2023-04-18T04:55:51.937Z,24.80
2023-04-18T04:56:53.991Z,19.55
2023-04-18T04:57:57.437Z,16.90
2023-04-18T04:59:00.133Z,21.02
2023-04-18T05:00:04.485Z,19.58
2023-04-18T05:01:10.451Z,18.92
2023-04-18T05:02:13.552Z,21.50
2023-04-18T05:03:15.841Z,23.33
2023-04-18T05:04:19.167Z,19.83
2023-04-18T05:05:22.819Z,18.02
2023-04-18T05:06:25.900Z,25.52
2023-04-18T05:07:27.954Z,19.08
2023-04-18T05:08:30.953Z,23.83
2023-04-18T05:09:32.924Z,19.02
2023-04-18T05:10:37.110Z,21.13
2023-04-18T05:11:39.182Z,19.38
2023-04-18T05:12:42.122Z,20.70
2023-04-18T05:13:45.216Z,20.58
2023-04-18T05:14:47.214Z,27.42
2023-04-18T05:15:51.930Z,21.00
2023-04-18T05:16:55.296Z,22.45
2023-04-18T05:17:58.635Z,24.30
2023-04-18T05:19:00.773Z,23.50
2023-04-18T05:20:03.843Z,19.42
2023-04-18T05:21:07.406Z,22.65
2023-04-18T05:22:10.372Z,24.48
2023-04-18T05:23:12.415Z,26.00
2023-04-18T05:24:15.718Z,21.30
2023-04-18T05:25:18.281Z,23.88
2023-04-18T05:26:21.438Z,21.42
2023-04-18T05:27:23.573Z,22.45
2023-04-18T05:28:27.339Z,23.90
2023-04-18T05:29:29.336Z,20.30
2023-04-18T05:30:32.399Z,28.35
2023-04-18T05:31:34.448Z,28.08
2023-04-18T05:32:38.981Z,25.30
2023-04-18T05:33:41.996Z,24.75
2023-04-18T05:34:44.052Z,23.45
2023-04-18T05:35:46.949Z,19.85
2023-04-18T05:36:50.485Z,26.75
2023-04-18T05:37:53.443Z,22.65
2023-04-18T05:38:55.424Z,21.05
2023-04-18T05:40:00.013Z,20.60
2023-04-18T05:41:04.092Z,22.45
2023-04-18T05:42:06.223Z,23.70
2023-04-18T05:43:09.165Z,22.33
2023-04-18T05:44:11.210Z,23.45
2023-04-18T05:45:14.226Z,23.73
2023-04-18T05:46:16.216Z,25.88
2023-04-18T05:47:19.290Z,22.83
2023-04-18T05:48:22.519Z,26.10
2023-04-18T05:49:25.527Z,28.92
2023-04-18T05:50:28.559Z,28.20
2023-04-18T05:51:31.209Z,29.10
2023-04-18T05:52:35.751Z,30.55
2023-04-18T05:53:38.763Z,24.20
2023-04-18T05:54:42.001Z,26.33
2023-04-18T05:55:46.446Z,24.15
2023-04-18T05:56:48.540Z,27.55
2023-04-18T05:57:51.650Z,26.25
2023-04-18T05:58:53.672Z,31.75
2023-04-18T05:59:56.823Z,27.10
2023-04-18T06:00:59.778Z,25.92
2023-04-18T06:02:01.937Z,25.40
2023-04-18T06:03:05.873Z,22.10
2023-04-18T06:04:09.408Z,28.15
2023-04-18T06:05:14.072Z,27.55
2023-04-18T06:06:17.279Z,25.58
2023-04-18T06:07:19.275Z,25.75
2023-04-18T06:08:23.615Z,23.48
2023-04-18T06:09:25.567Z,22.27
2023-04-18T06:10:29.603Z,24.08
2023-04-18T06:11:33.632Z,24.13
2023-04-18T06:12:36.690Z,22.00
2023-04-18T06:13:39.577Z,25.63
2023-04-18T06:14:41.532Z,26.60
2023-04-18T06:15:44.551Z,24.58
2023-04-18T06:16:46.506Z,22.38
2023-04-18T06:17:49.506Z,25.23
2023-04-18T06:18:52.506Z,22.73
2023-04-18T06:19:54.442Z,23.13
2023-04-18T06:20:57.367Z,26.05
2023-04-18T06:21:59.317Z,22.95
2023-04-18T06:23:02.242Z,25.02
2023-04-18T06:24:06.419Z,21.58
2023-04-18T06:25:10.256Z,23.88
2023-04-18T06:26:13.331Z,23.98
2023-04-18T06:27:24.383Z,24.48
2023-04-18T06:28:31.183Z,30.95
2023-04-18T06:29:33.767Z,26.90
2023-04-18T06:30:37.733Z,22.77
2023-04-18T06:31:39.756Z,22.52
2023-04-18T06:32:43.476Z,26.73
2023-04-18T06:33:46.439Z,29.52
2023-04-18T06:34:49.633Z,29.60
2023-04-18T06:35:52.748Z,23.70
2023-04-18T06:36:54.788Z,27.10
2023-04-18T06:37:58.083Z,26.42
2023-04-18T06:39:00.149Z,25.35
2023-04-18T06:40:05.354Z,23.52
2023-04-18T06:41:08.276Z,32.90
2023-04-18T06:42:10.182Z,23.92
2023-04-18T06:43:13.090Z,27.23
2023-04-18T06:44:15.430Z,27.40
2023-04-18T06:45:18.529Z,24.52
2023-04-18T06:46:21.567Z,23.60
2023-04-18T06:47:24.545Z,28.70
2023-04-18T06:48:26.514Z,23.75
2023-04-18T06:49:29.520Z,26.48
2023-04-18T06:50:31.740Z,24.52
2023-04-18T06:51:34.750Z,25.73
2023-04-18T06:52:40.621Z,23.02
2023-04-18T06:53:46.050Z,23.33
2023-04-18T06:54:48.982Z,22.45
2023-04-18T06:55:52.323Z,22.10
2023-04-18T06:56:55.909Z,24.67
2023-04-18T06:58:00.459Z,20.27
2023-04-18T06:59:03.457Z,22.60
2023-04-18T07:00:06.610Z,26.27
2023-04-18T07:01:09.596Z,25.50
2023-04-18T07:02:11.585Z,24.60
2023-04-18T07:03:16.905Z,23.55
2023-04-18T07:04:19.138Z,24.40
2023-04-18T07:05:22.534Z,24.30
2023-04-18T07:06:26.189Z,23.15
2023-04-18T07:07:29.134Z,23.63
2023-04-18T07:08:32.117Z,21.55
2023-04-18T07:09:34.140Z,27.58
2023-04-18T07:10:37.042Z,22.95
2023-04-18T07:11:40.684Z,21.90
2023-04-18T07:12:43.600Z,23.27
2023-04-18T07:13:45.639Z,26.92
2023-04-18T07:14:48.631Z,20.45
2023-04-18T07:15:51.650Z,24.55
2023-04-18T07:16:53.649Z,23.50
2023-04-18T07:17:56.926Z,23.73
2023-04-18T07:18:58.975Z,21.83
2023-04-18T07:20:01.940Z,21.38
2023-04-18T07:21:07.231Z,23.73
2023-04-18T07:22:09.539Z,27.08
2023-04-18T07:23:12.439Z,21.38
2023-04-18T07:24:15.611Z,21.42
2023-04-18T07:25:19.214Z,27.05
2023-04-18T07:26:22.258Z,22.00
2023-04-18T07:27:26.941Z,13.77
2023-04-18T07:28:29.126Z,19.42
2023-04-18T07:29:32.143Z,24.20
2023-04-18T07:30:35.158Z,21.52
2023-04-18T07:31:38.121Z,19.30
2023-04-18T07:32:41.294Z,19.73
2023-04-18T07:33:44.337Z,24.40
2023-04-18T07:34:48.063Z,20.27
2023-04-18T07:35:52.378Z,22.00
2023-04-18T07:36:54.366Z,21.00
2023-04-18T07:37:57.292Z,22.15
2023-04-18T07:39:00.216Z,19.02
2023-04-18T07:40:04.195Z,26.67
2023-04-18T07:41:07.144Z,22.77
2023-04-18T07:42:11.297Z,19.85
2023-04-18T07:43:15.689Z,20.08
2023-04-18T07:44:18.639Z,18.38
2023-04-18T07:45:20.773Z,18.95
2023-04-18T07:46:23.828Z,19.27
2023-04-18T07:47:30.368Z,18.45
2023-04-18T07:48:32.878Z,20.10
2023-04-18T07:49:35.814Z,22.08
2023-04-18T07:50:38.358Z,22.63
2023-04-18T07:51:41.254Z,20.05
2023-04-18T07:52:47.642Z,17.52
2023-04-18T07:53:50.802Z,20.25
2023-04-18T07:54:53.723Z,20.98
2023-04-18T07:55:56.886Z,21.85
2023-04-18T07:56:59.439Z,19.77
2023-04-18T07:58:02.587Z,20.65
2023-04-18T07:59:05.918Z,26.70
2023-04-18T08:00:10.268Z,17.83
2023-04-18T08:01:14.075Z,23.63
2023-04-18T08:02:17.067Z,22.85
2023-04-18T08:03:19.386Z,20.65
2023-04-18T08:04:22.766Z,20.77
2023-04-18T08:05:25.998Z,18.77
2023-04-18T08:06:28.199Z,19.33
2023-04-18T08:07:31.111Z,20.60
2023-04-18T08:08:34.574Z,16.95
2023-04-18T08:09:37.509Z,21.20
2023-04-18T08:10:39.568Z,23.65
2023-04-18T08:11:43.878Z,21.48
2023-04-18T08:12:45.832Z,20.65
2023-04-18T08:13:48.803Z,20.48
2023-04-18T08:14:52.075Z,20.17
2023-04-18T08:15:55.801Z,27.75
2023-04-18T08:16:58.785Z,20.15
2023-04-18T08:18:02.913Z,18.23
2023-04-18T08:19:06.060Z,20.92
2023-04-18T08:20:08.607Z,21.23
2023-04-18T08:21:11.764Z,24.35
2023-04-18T08:22:14.717Z,23.38
2023-04-18T08:23:17.669Z,19.13
2023-04-18T08:24:20.645Z,18.45
2023-04-18T08:25:22.638Z,20.63
2023-04-18T08:26:25.867Z,25.58
2023-04-18T08:27:27.894Z,18.25
2023-04-18T08:28:31.036Z,22.88
2023-04-18T08:29:34.096Z,18.85
2023-04-18T08:30:37.492Z,20.27
2023-04-18T08:31:40.900Z,18.83
2023-04-18T08:32:44.303Z,21.00
2023-04-18T08:33:47.449Z,15.23
2023-04-18T08:34:49.486Z,20.35
2023-04-18T08:35:52.578Z,19.90
2023-04-18T08:36:54.523Z,17.08
2023-04-18T08:37:57.529Z,16.13
2023-04-18T08:38:59.616Z,20.65
2023-04-18T08:40:03.706Z,20.63
2023-04-18T08:41:06.828Z,20.17
2023-04-18T08:42:12.295Z,15.88
2023-04-18T08:43:16.144Z,18.10
2023-04-18T08:44:19.153Z,18.52
2023-04-18T08:45:22.233Z,17.10
2023-04-18T08:46:26.399Z,18.50
2023-04-18T08:47:30.295Z,15.23
2023-04-18T08:48:32.543Z,14.90
2023-04-18T08:49:36.139Z,20.67
2023-04-18T08:50:39.116Z,16.92
2023-04-18T08:51:43.842Z,14.63
2023-04-18T08:52:48.800Z,16.05
2023-04-18T08:53:51.881Z,18.42
2023-04-18T08:54:54.831Z,18.95
2023-04-18T08:55:58.166Z,16.65
2023-04-18T08:57:06.204Z,15.38
2023-04-18T08:58:09.141Z,19.65
2023-04-18T08:59:12.660Z,13.75
2023-04-18T09:00:17.340Z,15.98
2023-04-18T09:01:21.537Z,13.35
2023-04-18T09:02:39.138Z,15.32
2023-04-18T09:03:44.171Z,17.33
2023-04-18T09:04:52.371Z,16.98
2023-04-18T09:06:08.342Z,15.25
2023-04-18T09:07:13.946Z,16.55
2023-04-18T09:08:24.996Z,17.20
2023-04-18T09:09:28.083Z,15.75
2023-04-18T09:10:33.275Z,17.02
2023-04-18T09:11:35.615Z,18.20
2023-04-18T09:12:49.918Z,20.30
2023-04-18T09:13:55.932Z,16.95
2023-04-18T09:15:11.664Z,18.17
2023-04-18T09:16:14.390Z,12.93
2023-04-18T09:17:34.512Z,16.17
2023-04-18T09:18:39.048Z,14.82
2023-04-18T09:19:48.805Z,22.10
2023-04-18T09:20:51.934Z,17.80
2023-04-18T09:21:59.076Z,16.33
2023-04-18T09:23:03.778Z,18.08
2023-04-18T09:24:21.132Z,15.18
2023-04-18T09:25:29.342Z,14.30
2023-04-18T09:26:34.043Z,18.77
2023-04-18T09:27:37.679Z,18.10
2023-04-18T09:28:40.755Z,16.48
2023-04-18T09:29:46.637Z,16.10
2023-04-18T09:30:52.472Z,14.60
2023-04-18T09:32:02.115Z,14.55
2023-04-18T09:33:07.542Z,14.45
2023-04-18T09:34:25.126Z,18.75
2023-04-18T09:35:28.675Z,18.17
2023-04-18T09:36:32.288Z,15.60
2023-04-18T09:37:36.133Z,15.88
2023-04-18T09:38:42.545Z,14.57
2023-04-18T09:39:46.116Z,14.95
2023-04-18T09:41:07.725Z,17.02
2023-04-18T09:42:10.591Z,17.27
2023-04-18T09:43:20.687Z,13.18
2023-04-18T09:44:22.756Z,17.55
2023-04-18T09:45:26.613Z,13.75
2023-04-18T09:46:29.110Z,17.50
2023-04-18T09:47:35.658Z,15.02
2023-04-18T09:48:39.486Z,13.65
2023-04-18T09:49:42.805Z,16.92
2023-04-18T09:50:47.178Z,17.95
2023-04-18T09:51:51.546Z,12.25
2023-04-18T09:52:56.011Z,15.50
2023-04-18T09:53:58.112Z,16.00
2023-04-18T09:55:02.799Z,16.25
2023-04-18T09:56:07.371Z,15.38
2023-04-18T09:57:13.557Z,19.27
2023-04-18T09:58:17.662Z,16.25
2023-04-18T09:59:34.214Z,13.77
2023-04-18T10:00:38.980Z,15.95
2023-04-18T10:01:41.514Z,13.70
2023-04-18T10:02:57.905Z,14.18
2023-04-18T10:04:01.994Z,14.35
2023-04-18T10:05:09.093Z,14.55
2023-04-18T10:06:15.890Z,16.20
2023-04-18T10:07:19.078Z,14.35
2023-04-18T10:08:22.338Z,15.20
2023-04-18T10:09:24.516Z,15.73
2023-04-18T10:10:27.493Z,15.55
2023-04-18T10:11:30.705Z,16.65
2023-04-18T10:12:34.207Z,15.50
2023-04-18T10:13:39.364Z,16.20
2023-04-18T10:14:43.253Z,13.65
2023-04-18T10:15:47.144Z,14.65
2023-04-18T10:16:50.616Z,17.20
2023-04-18T10:18:04.403Z,15.63
2023-04-18T10:19:27.629Z,13.30
2023-04-18T10:20:33.496Z,13.85
2023-04-18T10:21:35.464Z,14.57
2023-04-18T10:22:38.470Z,15.27
2023-04-18T10:23:42.014Z,13.60
2023-04-18T10:24:53.614Z,15.93
2023-04-18T10:25:56.854Z,14.48
2023-04-18T10:26:58.796Z,19.00
2023-04-18T10:28:02.824Z,14.82
2023-04-18T10:29:04.847Z,16.48
2023-04-18T10:30:09.293Z,13.70
2023-04-18T10:31:12.296Z,17.45
2023-04-18T10:32:14.603Z,14.60
2023-04-18T10:33:35.328Z,17.88
2023-04-18T10:34:46.954Z,14.07
2023-04-18T10:35:58.581Z,13.27
2023-04-18T10:37:07.890Z,14.90
2023-04-18T10:38:17.329Z,13.52
2023-04-18T10:39:25.529Z,16.13
2023-04-18T10:40:33.141Z,14.20
2023-04-18T10:41:38.236Z,14.63
2023-04-18T10:42:58.830Z,15.80
2023-04-18T10:44:22.866Z,13.45
2023-04-18T10:45:26.014Z,15.25
2023-04-18T10:46:32.564Z,17.70
2023-04-18T10:47:36.098Z,13.50
2023-04-18T10:48:39.231Z,16.63
2023-04-18T10:49:55.842Z,13.63
2023-04-18T10:51:16.962Z,15.02
2023-04-18T10:52:19.351Z,13.93
2023-04-18T10:53:22.338Z,13.93
2023-04-18T10:54:32.115Z,14.98
2023-04-18T10:55:36.746Z,14.65
2023-04-18T10:56:39.340Z,14.73
2023-04-18T10:57:43.802Z,15.57
2023-04-18T10:58:51.487Z,15.77
2023-04-18T10:59:54.919Z,18.95
2023-04-18T11:00:58.109Z,16.23
2023-04-18T11:02:10.259Z,13.30
2023-04-18T11:03:13.479Z,11.50
2023-04-18T11:04:16.686Z,15.68
2023-04-18T11:05:22.598Z,14.77
2023-04-18T11:06:27.157Z,13.10
2023-04-18T11:07:34.933Z,12.52
2023-04-18T11:08:37.865Z,12.88
2023-04-18T11:09:40.861Z,12.07
2023-04-18T11:10:44.415Z,13.05
2023-04-18T11:11:46.336Z,12.60
2023-04-18T11:12:49.421Z,11.05
2023-04-18T11:13:56.634Z,15.45
2023-04-18T11:14:59.454Z,12.38
2023-04-18T11:16:02.388Z,12.27
2023-04-18T11:17:20.434Z,9.23
2023-04-18T11:18:23.415Z,10.27
2023-04-18T11:19:25.458Z,12.25
2023-04-18T11:20:29.344Z,9.70
2023-04-18T11:21:33.715Z,10.65
2023-04-18T11:22:45.644Z,12.75
2023-04-18T11:23:48.778Z,11.80
2023-04-18T11:24:50.907Z,13.07
2023-04-18T11:25:56.691Z,10.77
2023-04-18T11:26:59.971Z,10.52
2023-04-18T11:28:04.498Z,9.73
2023-04-18T11:29:06.527Z,10.27
2023-04-18T11:30:10.347Z,11.80
2023-04-18T11:31:16.761Z,13.20
2023-04-18T11:32:18.725Z,9.30
2023-04-18T11:33:21.691Z,9.40
2023-04-18T11:34:28.747Z,12.55
2023-04-18T11:35:31.848Z,9.93
2023-04-18T11:36:38.002Z,10.73
2023-04-18T11:37:41.970Z,12.27
2023-04-18T11:38:44.961Z,11.77
2023-04-18T11:39:47.064Z,11.07
2023-04-18T11:40:50.757Z,10.50
2023-04-18T11:41:53.257Z,18.38
2023-04-18T11:42:56.449Z,9.80
2023-04-18T11:43:58.432Z,10.30
2023-04-18T11:45:01.409Z,10.07
2023-04-18T11:46:03.408Z,10.98
2023-04-18T11:47:06.859Z,10.95
2023-04-18T11:48:09.988Z,10.30
2023-04-18T11:49:28.437Z,10.88
2023-04-18T11:50:37.723Z,12.23
2023-04-18T11:51:44.686Z,12.88
2023-04-18T11:52:51.685Z,11.23
2023-04-18T11:53:53.618Z,10.20
2023-04-18T11:54:57.272Z,12.60
2023-04-18T11:55:59.824Z,12.30
2023-04-18T11:57:02.860Z,11.65
2023-04-18T11:58:06.780Z,11.80
2023-04-18T11:59:09.492Z,10.20
2023-04-18T12:00:13.643Z,14.93
2023-04-18T12:01:17.308Z,10.80
2023-04-18T12:02:21.159Z,9.77
2023-04-18T12:03:24.679Z,11.32
2023-04-18T12:04:28.282Z,12.25
2023-04-18T12:05:32.466Z,12.65
2023-04-18T12:06:48.348Z,11.68
2023-04-18T12:07:51.325Z,12.95
2023-04-18T12:08:58.881Z,9.82
2023-04-18T12:10:02.090Z,9.93
2023-04-18T12:11:05.363Z,12.73
2023-04-18T12:12:07.393Z,11.35
2023-04-18T12:13:10.370Z,10.25
2023-04-18T12:14:21.648Z,10.52
2023-04-18T12:15:27.216Z,11.27
2023-04-18T12:16:30.700Z,9.32
2023-04-18T12:17:33.792Z,9.27
2023-04-18T12:18:36.789Z,16.70
2023-04-18T12:19:40.169Z,13.00
2023-04-18T12:20:50.118Z,11.65
2023-04-18T12:22:00.339Z,11.15
2023-04-18T12:23:04.477Z,9.43
2023-04-18T12:24:15.417Z,10.15
2023-04-18T12:25:26.170Z,8.45
2023-04-18T12:26:30.190Z,8.15
2023-04-18T12:27:51.768Z,12.80
2023-04-18T12:28:54.693Z,8.02
2023-04-18T12:29:56.641Z,7.53
2023-04-18T12:30:59.870Z,9.90
2023-04-18T12:32:02.287Z,10.40
2023-04-18T12:33:06.637Z,9.25
2023-04-18T12:34:08.762Z,7.85
2023-04-18T12:35:11.709Z,11.60
2023-04-18T12:36:14.698Z,9.82
2023-04-18T12:37:18.050Z,10.43
2023-04-18T12:38:22.427Z,7.32
2023-04-18T12:39:25.904Z,8.90
2023-04-18T12:40:31.463Z,9.57
2023-04-18T12:41:33.475Z,9.57
2023-04-18T12:42:36.387Z,8.85
2023-04-18T12:43:39.346Z,9.45
2023-04-18T12:44:41.418Z,8.90
2023-04-18T12:45:44.477Z,9.10
2023-04-18T12:46:46.501Z,9.07
2023-04-18T12:47:50.472Z,7.63
2023-04-18T12:48:53.459Z,9.98
2023-04-18T12:49:55.572Z,17.38
2023-04-18T12:50:58.656Z,7.13
2023-04-18T12:52:00.689Z,8.13
2023-04-18T12:53:06.952Z,7.22
2023-04-18T12:54:08.934Z,8.20
2023-04-18T12:55:12.072Z,8.95
2023-04-18T12:56:15.032Z,8.43
2023-04-18T12:57:17.585Z,10.48
2023-04-18T12:58:20.849Z,7.55
2023-04-18T12:59:22.774Z,6.88
2023-04-18T13:00:27.776Z,7.60
2023-04-18T13:01:30.926Z,10.05
2023-04-18T13:02:35.283Z,8.13
2023-04-18T13:03:38.679Z,6.47
2023-04-18T13:04:41.164Z,7.32
2023-04-18T13:05:44.379Z,10.38
2023-04-18T13:06:46.349Z,8.68
2023-04-18T13:07:49.951Z,7.32
2023-04-18T13:08:55.504Z,11.18
2023-04-18T13:09:57.417Z,7.70
2023-04-18T13:11:00.314Z,8.43
2023-04-18T13:12:02.327Z,9.77
2023-04-18T13:13:05.454Z,10.25
2023-04-18T13:14:07.355Z,9.80
2023-04-18T13:15:11.273Z,10.25
2023-04-18T13:16:14.232Z,10.07
2023-04-18T13:17:16.203Z,8.45
2023-04-18T13:18:19.127Z,7.50
2023-04-18T13:19:21.133Z,10.00
2023-04-18T13:20:24.073Z,11.85
2023-04-18T13:21:26.681Z,8.23
2023-04-18T13:22:30.855Z,10.27
2023-04-18T13:23:32.785Z,9.75
2023-04-18T13:24:37.520Z,9.98
2023-04-18T13:25:40.548Z,9.73
2023-04-18T13:26:42.494Z,7.43
2023-04-18T13:27:45.981Z,10.60
2023-04-18T13:28:52.578Z,10.73
2023-04-18T13:29:55.100Z,9.57
2023-04-18T13:30:58.539Z,9.10
2023-04-18T13:32:00.527Z,13.20
2023-04-18T13:33:03.559Z,15.93
2023-04-18T13:34:05.511Z,12.98
2023-04-18T13:35:09.315Z,13.73
2023-04-18T13:36:11.293Z,12.15
2023-04-18T13:37:15.492Z,13.48
2023-04-18T13:38:19.272Z,11.48
2023-04-18T13:39:21.366Z,9.65
2023-04-18T13:40:25.697Z,9.15
2023-04-18T13:41:27.641Z,11.20
2023-04-18T13:42:30.640Z,12.75
2023-04-18T13:43:34.160Z,10.07
2023-04-18T13:44:38.061Z,8.02